sensor_id;sensor_type;location;lat;lon;timestamp;P1;durP1;ratioP1;P2;durP2;ratioP2
33104;SDS011;19476;51.448;6.674;2024-03-07T00:00:35;22.42;;;14.25;;
33104;SDS011;19476;51.448;6.674;2024-03-07T00:03:01;26.90;;;15.48;;
33104;SDS011;19476;51.448;6.674;2024-03-07T00:05:26;24.35;;;14.82;;
33104;SDS011;19476;51.448;6.674;2024-03-07T00:07:53;24.67;;;14.65;;
33104;SDS011;19476;51.448;6.674;2024-03-07T00:10:19;26.65;;;15.88;;
33104;SDS011;19476;51.448;6.674;2024-03-07T00:12:46;25.70;;;15.68;;
33104;SDS011;19476;51.448;6.674;2024-03-07T00:15:13;25.75;;;15.07;;
33104;SDS011;19476;51.448;6.674;2024-03-07T00:17:39;25.15;;;15.45;;
33104;SDS011;19476;51.448;6.674;2024-03-07T00:20:06;26.85;;;15.98;;
33104;SDS011;19476;51.448;6.674;2024-03-07T00:22:42;25.85;;;15.80;;
33104;SDS011;19476;51.448;6.674;2024-03-07T00:25:08;23.38;;;14.60;;
33104;SDS011;19476;51.448;6.674;2024-03-07T00:27:35;28.75;;;15.57;;
33104;SDS011;19476;51.448;6.674;2024-03-07T00:30:01;27.63;;;16.10;;
33104;SDS011;19476;51.448;6.674;2024-03-07T00:32:27;25.20;;;14.48;;
33104;SDS011;19476;51.448;6.674;2024-03-07T00:34:55;25.30;;;16.58;;
33104;SDS011;19476;51.448;6.674;2024-03-07T00:37:24;23.95;;;15.10;;
33104;SDS011;19476;51.448;6.674;2024-03-07T00:39:50;25.73;;;15.57;;
33104;SDS011;19476;51.448;6.674;2024-03-07T00:42:15;24.55;;;15.18;;
33104;SDS011;19476;51.448;6.674;2024-03-07T00:44:42;28.73;;;15.65;;
33104;SDS011;19476;51.448;6.674;2024-03-07T00:47:08;26.52;;;16.90;;
33104;SDS011;19476;51.448;6.674;2024-03-07T00:49:34;28.17;;;16.55;;
33104;SDS011;19476;51.448;6.674;2024-03-07T00:52:00;24.23;;;15.35;;
33104;SDS011;19476;51.448;6.674;2024-03-07T00:54:26;25.30;;;15.60;;
33104;SDS011;19476;51.448;6.674;2024-03-07T00:56:52;25.33;;;16.10;;
33104;SDS011;19476;51.448;6.674;2024-03-07T00:59:20;28.02;;;16.13;;
33104;SDS011;19476;51.448;6.674;2024-03-07T01:01:46;23.77;;;14.80;;
33104;SDS011;19476;51.448;6.674;2024-03-07T01:04:12;28.40;;;15.43;;
33104;SDS011;19476;51.448;6.674;2024-03-07T01:06:38;24.17;;;15.40;;
33104;SDS011;19476;51.448;6.674;2024-03-07T01:09:05;26.85;;;15.65;;
33104;SDS011;19476;51.448;6.674;2024-03-07T01:11:38;26.92;;;15.98;;
33104;SDS011;19476;51.448;6.674;2024-03-07T01:14:04;24.85;;;15.13;;
33104;SDS011;19476;51.448;6.674;2024-03-07T01:16:30;24.55;;;15.20;;
33104;SDS011;19476;51.448;6.674;2024-03-07T01:18:56;26.50;;;15.63;;
33104;SDS011;19476;51.448;6.674;2024-03-07T01:21:22;25.83;;;14.45;;
33104;SDS011;19476;51.448;6.674;2024-03-07T01:23:49;26.95;;;15.45;;
33104;SDS011;19476;51.448;6.674;2024-03-07T01:26:15;23.73;;;14.93;;
33104;SDS011;19476;51.448;6.674;2024-03-07T01:28:40;23.25;;;14.30;;
33104;SDS011;19476;51.448;6.674;2024-03-07T01:31:06;26.35;;;15.77;;
33104;SDS011;19476;51.448;6.674;2024-03-07T01:33:33;25.90;;;16.67;;
33104;SDS011;19476;51.448;6.674;2024-03-07T01:35:58;27.10;;;15.90;;
33104;SDS011;19476;51.448;6.674;2024-03-07T01:38:24;24.60;;;15.70;;
33104;SDS011;19476;51.448;6.674;2024-03-07T01:40:50;24.55;;;15.98;;
33104;SDS011;19476;51.448;6.674;2024-03-07T01:43:16;26.15;;;16.52;;
33104;SDS011;19476;51.448;6.674;2024-03-07T01:45:41;26.63;;;15.60;;
33104;SDS011;19476;51.448;6.674;2024-03-07T01:48:10;26.10;;;16.95;;
33104;SDS011;19476;51.448;6.674;2024-03-07T01:50:38;26.63;;;15.25;;
33104;SDS011;19476;51.448;6.674;2024-03-07T01:53:08;27.27;;;16.55;;
33104;SDS011;19476;51.448;6.674;2024-03-07T01:55:36;25.17;;;14.73;;
33104;SDS011;19476;51.448;6.674;2024-03-07T01:58:02;25.35;;;16.33;;
33104;SDS011;19476;51.448;6.674;2024-03-07T02:00:31;25.85;;;15.63;;
33104;SDS011;19476;51.448;6.674;2024-03-07T02:02:56;27.95;;;16.77;;
33104;SDS011;19476;51.448;6.674;2024-03-07T02:05:25;26.75;;;17.08;;
33104;SDS011;19476;51.448;6.674;2024-03-07T02:07:50;27.63;;;17.63;;
33104;SDS011;19476;51.448;6.674;2024-03-07T02:10:16;28.15;;;17.20;;
33104;SDS011;19476;51.448;6.674;2024-03-07T02:12:43;26.35;;;16.02;;
33104;SDS011;19476;51.448;6.674;2024-03-07T02:15:08;28.40;;;17.10;;
33104;SDS011;19476;51.448;6.674;2024-03-07T02:17:34;26.67;;;16.98;;
33104;SDS011;19476;51.448;6.674;2024-03-07T02:20:01;25.40;;;15.73;;
33104;SDS011;19476;51.448;6.674;2024-03-07T02:22:29;26.40;;;16.25;;
33104;SDS011;19476;51.448;6.674;2024-03-07T02:24:55;26.55;;;16.20;;
33104;SDS011;19476;51.448;6.674;2024-03-07T02:27:21;27.50;;;17.27;;
33104;SDS011;19476;51.448;6.674;2024-03-07T02:29:46;27.48;;;16.20;;
33104;SDS011;19476;51.448;6.674;2024-03-07T02:32:12;28.02;;;17.17;;
33104;SDS011;19476;51.448;6.674;2024-03-07T02:34:38;26.85;;;16.33;;
33104;SDS011;19476;51.448;6.674;2024-03-07T02:37:04;27.55;;;16.27;;
33104;SDS011;19476;51.448;6.674;2024-03-07T02:39:29;25.88;;;15.43;;
33104;SDS011;19476;51.448;6.674;2024-03-07T02:41:55;29.58;;;17.27;;
33104;SDS011;19476;51.448;6.674;2024-03-07T02:44:21;26.67;;;16.95;;
33104;SDS011;19476;51.448;6.674;2024-03-07T02:46:46;28.05;;;16.65;;
33104;SDS011;19476;51.448;6.674;2024-03-07T02:49:13;27.52;;;16.67;;
33104;SDS011;19476;51.448;6.674;2024-03-07T02:51:41;28.02;;;16.95;;
33104;SDS011;19476;51.448;6.674;2024-03-07T02:54:07;26.65;;;15.18;;
33104;SDS011;19476;51.448;6.674;2024-03-07T02:56:33;24.65;;;16.20;;
33104;SDS011;19476;51.448;6.674;2024-03-07T02:58:59;26.48;;;15.30;;
33104;SDS011;19476;51.448;6.674;2024-03-07T03:01:25;23.42;;;15.07;;
33104;SDS011;19476;51.448;6.674;2024-03-07T03:03:50;26.30;;;15.60;;
33104;SDS011;19476;51.448;6.674;2024-03-07T03:06:16;24.98;;;15.35;;
33104;SDS011;19476;51.448;6.674;2024-03-07T03:08:45;24.17;;;14.95;;
33104;SDS011;19476;51.448;6.674;2024-03-07T03:11:11;25.05;;;15.88;;
33104;SDS011;19476;51.448;6.674;2024-03-07T03:13:38;24.58;;;15.68;;
33104;SDS011;19476;51.448;6.674;2024-03-07T03:16:04;24.92;;;16.17;;
33104;SDS011;19476;51.448;6.674;2024-03-07T03:18:32;28.60;;;17.08;;
33104;SDS011;19476;51.448;6.674;2024-03-07T03:21:01;25.40;;;15.20;;
33104;SDS011;19476;51.448;6.674;2024-03-07T03:23:28;23.17;;;15.30;;
33104;SDS011;19476;51.448;6.674;2024-03-07T03:25:53;23.90;;;14.63;;
33104;SDS011;19476;51.448;6.674;2024-03-07T03:28:20;24.85;;;15.95;;
33104;SDS011;19476;51.448;6.674;2024-03-07T03:30:47;23.83;;;15.45;;
33104;SDS011;19476;51.448;6.674;2024-03-07T03:33:14;22.83;;;14.35;;
33104;SDS011;19476;51.448;6.674;2024-03-07T03:35:40;23.40;;;14.38;;
33104;SDS011;19476;51.448;6.674;2024-03-07T03:38:06;25.50;;;15.35;;
33104;SDS011;19476;51.448;6.674;2024-03-07T03:40:32;26.45;;;16.80;;
33104;SDS011;19476;51.448;6.674;2024-03-07T03:42:59;24.77;;;15.32;;
33104;SDS011;19476;51.448;6.674;2024-03-07T03:45:25;24.98;;;15.45;;
33104;SDS011;19476;51.448;6.674;2024-03-07T03:47:52;24.27;;;15.70;;
33104;SDS011;19476;51.448;6.674;2024-03-07T03:50:18;22.90;;;15.35;;
33104;SDS011;19476;51.448;6.674;2024-03-07T03:52:43;24.75;;;14.85;;
33104;SDS011;19476;51.448;6.674;2024-03-07T03:55:09;24.13;;;15.50;;
33104;SDS011;19476;51.448;6.674;2024-03-07T03:57:37;25.20;;;16.02;;
33104;SDS011;19476;51.448;6.674;2024-03-07T04:00:05;24.95;;;15.60;;
33104;SDS011;19476;51.448;6.674;2024-03-07T04:02:37;24.48;;;15.35;;
33104;SDS011;19476;51.448;6.674;2024-03-07T04:05:04;24.25;;;15.57;;
33104;SDS011;19476;51.448;6.674;2024-03-07T04:07:30;25.67;;;16.48;;
33104;SDS011;19476;51.448;6.674;2024-03-07T04:09:56;24.17;;;15.23;;
33104;SDS011;19476;51.448;6.674;2024-03-07T04:12:23;26.05;;;15.80;;
33104;SDS011;19476;51.448;6.674;2024-03-07T04:14:49;27.90;;;17.15;;
33104;SDS011;19476;51.448;6.674;2024-03-07T04:17:14;25.08;;;15.60;;
33104;SDS011;19476;51.448;6.674;2024-03-07T04:19:40;23.35;;;15.40;;
33104;SDS011;19476;51.448;6.674;2024-03-07T04:22:07;27.15;;;16.48;;
33104;SDS011;19476;51.448;6.674;2024-03-07T04:24:33;24.45;;;16.20;;
33104;SDS011;19476;51.448;6.674;2024-03-07T04:27:03;25.67;;;15.83;;
33104;SDS011;19476;51.448;6.674;2024-03-07T04:29:30;23.75;;;14.77;;
33104;SDS011;19476;51.448;6.674;2024-03-07T04:31:57;24.55;;;15.02;;
33104;SDS011;19476;51.448;6.674;2024-03-07T04:34:23;24.48;;;15.93;;
33104;SDS011;19476;51.448;6.674;2024-03-07T04:36:49;25.38;;;15.32;;
33104;SDS011;19476;51.448;6.674;2024-03-07T04:39:14;23.33;;;15.13;;
33104;SDS011;19476;51.448;6.674;2024-03-07T04:41:59;25.35;;;15.40;;
33104;SDS011;19476;51.448;6.674;2024-03-07T04:44:25;23.67;;;15.40;;
33104;SDS011;19476;51.448;6.674;2024-03-07T04:46:52;22.67;;;14.77;;
33104;SDS011;19476;51.448;6.674;2024-03-07T04:49:24;25.05;;;16.08;;
33104;SDS011;19476;51.448;6.674;2024-03-07T04:51:53;23.13;;;14.70;;
33104;SDS011;19476;51.448;6.674;2024-03-07T04:54:20;24.20;;;14.75;;
33104;SDS011;19476;51.448;6.674;2024-03-07T04:56:47;22.83;;;14.30;;
33104;SDS011;19476;51.448;6.674;2024-03-07T04:59:14;24.35;;;15.55;;
33104;SDS011;19476;51.448;6.674;2024-03-07T05:01:41;23.67;;;15.57;;
33104;SDS011;19476;51.448;6.674;2024-03-07T05:04:07;22.00;;;14.85;;
33104;SDS011;19476;51.448;6.674;2024-03-07T05:06:33;22.75;;;15.30;;
33104;SDS011;19476;51.448;6.674;2024-03-07T05:09:02;22.42;;;13.95;;
33104;SDS011;19476;51.448;6.674;2024-03-07T05:11:31;24.98;;;14.85;;
33104;SDS011;19476;51.448;6.674;2024-03-07T05:13:57;23.75;;;15.45;;
33104;SDS011;19476;51.448;6.674;2024-03-07T05:16:23;23.20;;;14.98;;
33104;SDS011;19476;51.448;6.674;2024-03-07T05:18:50;21.83;;;14.65;;
33104;SDS011;19476;51.448;6.674;2024-03-07T05:21:16;22.00;;;14.20;;
33104;SDS011;19476;51.448;6.674;2024-03-07T05:24:08;24.63;;;13.90;;
33104;SDS011;19476;51.448;6.674;2024-03-07T05:26:34;23.15;;;15.23;;
33104;SDS011;19476;51.448;6.674;2024-03-07T05:29:06;22.80;;;15.65;;
33104;SDS011;19476;51.448;6.674;2024-03-07T05:31:39;23.27;;;15.02;;
33104;SDS011;19476;51.448;6.674;2024-03-07T05:34:14;21.95;;;14.77;;
33104;SDS011;19476;51.448;6.674;2024-03-07T05:36:44;22.45;;;14.18;;
33104;SDS011;19476;51.448;6.674;2024-03-07T05:39:13;22.73;;;14.30;;
33104;SDS011;19476;51.448;6.674;2024-03-07T05:41:40;21.92;;;14.13;;
33104;SDS011;19476;51.448;6.674;2024-03-07T05:44:07;23.75;;;15.38;;
33104;SDS011;19476;51.448;6.674;2024-03-07T05:46:39;23.23;;;14.60;;
33104;SDS011;19476;51.448;6.674;2024-03-07T05:49:13;22.38;;;13.70;;
33104;SDS011;19476;51.448;6.674;2024-03-07T05:51:39;23.33;;;14.02;;
33104;SDS011;19476;51.448;6.674;2024-03-07T05:54:10;22.73;;;14.60;;
33104;SDS011;19476;51.448;6.674;2024-03-07T05:56:37;24.52;;;14.95;;
33104;SDS011;19476;51.448;6.674;2024-03-07T05:59:04;24.30;;;15.27;;
33104;SDS011;19476;51.448;6.674;2024-03-07T06:01:32;23.98;;;14.88;;
33104;SDS011;19476;51.448;6.674;2024-03-07T06:04:00;23.92;;;14.82;;
33104;SDS011;19476;51.448;6.674;2024-03-07T06:06:26;25.75;;;15.85;;
33104;SDS011;19476;51.448;6.674;2024-03-07T06:08:52;22.90;;;14.40;;
33104;SDS011;19476;51.448;6.674;2024-03-07T06:11:18;23.73;;;15.85;;
33104;SDS011;19476;51.448;6.674;2024-03-07T06:13:46;22.92;;;14.68;;
33104;SDS011;19476;51.448;6.674;2024-03-07T06:16:12;22.35;;;13.90;;
33104;SDS011;19476;51.448;6.674;2024-03-07T06:18:39;20.58;;;13.88;;
33104;SDS011;19476;51.448;6.674;2024-03-07T06:21:06;22.73;;;14.60;;
33104;SDS011;19476;51.448;6.674;2024-03-07T06:23:32;22.15;;;15.38;;
33104;SDS011;19476;51.448;6.674;2024-03-07T06:25:58;23.33;;;14.57;;
33104;SDS011;19476;51.448;6.674;2024-03-07T06:28:24;22.67;;;14.60;;
33104;SDS011;19476;51.448;6.674;2024-03-07T06:30:50;20.83;;;13.40;;
33104;SDS011;19476;51.448;6.674;2024-03-07T06:33:16;23.23;;;13.82;;
33104;SDS011;19476;51.448;6.674;2024-03-07T06:35:41;21.60;;;13.77;;
33104;SDS011;19476;51.448;6.674;2024-03-07T06:38:08;20.90;;;14.50;;
33104;SDS011;19476;51.448;6.674;2024-03-07T06:40:35;20.85;;;13.57;;
33104;SDS011;19476;51.448;6.674;2024-03-07T06:43:01;22.27;;;13.38;;
33104;SDS011;19476;51.448;6.674;2024-03-07T06:45:32;23.35;;;14.60;;
33104;SDS011;19476;51.448;6.674;2024-03-07T06:47:58;20.70;;;13.73;;
33104;SDS011;19476;51.448;6.674;2024-03-07T06:50:24;24.08;;;13.32;;
33104;SDS011;19476;51.448;6.674;2024-03-07T06:52:50;20.42;;;13.32;;
33104;SDS011;19476;51.448;6.674;2024-03-07T06:55:16;21.45;;;13.85;;
33104;SDS011;19476;51.448;6.674;2024-03-07T06:57:42;21.77;;;14.00;;
33104;SDS011;19476;51.448;6.674;2024-03-07T07:00:10;25.90;;;14.65;;
33104;SDS011;19476;51.448;6.674;2024-03-07T07:02:40;21.35;;;14.15;;
33104;SDS011;19476;51.448;6.674;2024-03-07T07:05:06;21.98;;;13.45;;
33104;SDS011;19476;51.448;6.674;2024-03-07T07:07:38;22.65;;;14.38;;
33104;SDS011;19476;51.448;6.674;2024-03-07T07:10:04;22.02;;;13.98;;
33104;SDS011;19476;51.448;6.674;2024-03-07T07:12:34;24.33;;;14.80;;
33104;SDS011;19476;51.448;6.674;2024-03-07T07:15:00;21.63;;;13.60;;
33104;SDS011;19476;51.448;6.674;2024-03-07T07:17:26;19.52;;;13.43;;
33104;SDS011;19476;51.448;6.674;2024-03-07T07:19:54;21.30;;;13.18;;
33104;SDS011;19476;51.448;6.674;2024-03-07T07:22:20;22.42;;;14.60;;
33104;SDS011;19476;51.448;6.674;2024-03-07T07:24:46;22.15;;;14.45;;
33104;SDS011;19476;51.448;6.674;2024-03-07T07:27:12;23.02;;;14.80;;
33104;SDS011;19476;51.448;6.674;2024-03-07T07:29:38;22.30;;;14.20;;
33104;SDS011;19476;51.448;6.674;2024-03-07T07:32:04;24.35;;;14.73;;
33104;SDS011;19476;51.448;6.674;2024-03-07T07:34:30;19.67;;;13.23;;
33104;SDS011;19476;51.448;6.674;2024-03-07T07:36:56;20.38;;;14.30;;
33104;SDS011;19476;51.448;6.674;2024-03-07T07:39:23;21.73;;;13.82;;
33104;SDS011;19476;51.448;6.674;2024-03-07T07:41:48;21.10;;;14.07;;
33104;SDS011;19476;51.448;6.674;2024-03-07T07:44:15;23.00;;;14.32;;
33104;SDS011;19476;51.448;6.674;2024-03-07T07:46:41;21.17;;;14.00;;
33104;SDS011;19476;51.448;6.674;2024-03-07T07:49:06;22.08;;;13.73;;
33104;SDS011;19476;51.448;6.674;2024-03-07T07:51:32;20.20;;;13.80;;
33104;SDS011;19476;51.448;6.674;2024-03-07T07:53:58;26.50;;;15.25;;
33104;SDS011;19476;51.448;6.674;2024-03-07T07:56:24;22.63;;;14.52;;
33104;SDS011;19476;51.448;6.674;2024-03-07T07:58:53;21.65;;;14.38;;
33104;SDS011;19476;51.448;6.674;2024-03-07T08:01:19;22.30;;;14.32;;
33104;SDS011;19476;51.448;6.674;2024-03-07T08:03:44;22.00;;;14.38;;
33104;SDS011;19476;51.448;6.674;2024-03-07T08:06:10;20.65;;;13.75;;
33104;SDS011;19476;51.448;6.674;2024-03-07T08:08:36;20.77;;;14.45;;
33104;SDS011;19476;51.448;6.674;2024-03-07T08:11:01;20.10;;;13.40;;
33104;SDS011;19476;51.448;6.674;2024-03-07T08:13:27;23.02;;;15.25;;
33104;SDS011;19476;51.448;6.674;2024-03-07T08:15:53;22.38;;;14.50;;
33104;SDS011;19476;51.448;6.674;2024-03-07T08:18:19;22.65;;;14.38;;
33104;SDS011;19476;51.448;6.674;2024-03-07T08:20:45;20.00;;;13.02;;
33104;SDS011;19476;51.448;6.674;2024-03-07T08:23:11;21.45;;;13.60;;
33104;SDS011;19476;51.448;6.674;2024-03-07T08:25:38;19.65;;;13.43;;
33104;SDS011;19476;51.448;6.674;2024-03-07T08:28:07;20.67;;;13.53;;
33104;SDS011;19476;51.448;6.674;2024-03-07T08:30:33;18.80;;;13.05;;
33104;SDS011;19476;51.448;6.674;2024-03-07T08:33:00;19.17;;;11.55;;
33104;SDS011;19476;51.448;6.674;2024-03-07T08:35:28;20.15;;;12.98;;
33104;SDS011;19476;51.448;6.674;2024-03-07T08:37:54;19.52;;;13.02;;
33104;SDS011;19476;51.448;6.674;2024-03-07T08:40:24;19.20;;;12.38;;
33104;SDS011;19476;51.448;6.674;2024-03-07T08:42:56;22.13;;;13.65;;
33104;SDS011;19476;51.448;6.674;2024-03-07T08:45:22;20.52;;;14.13;;
33104;SDS011;19476;51.448;6.674;2024-03-07T08:47:49;20.77;;;14.07;;
33104;SDS011;19476;51.448;6.674;2024-03-07T08:50:16;21.65;;;14.27;;
33104;SDS011;19476;51.448;6.674;2024-03-07T08:52:43;20.63;;;13.35;;
33104;SDS011;19476;51.448;6.674;2024-03-07T08:55:11;20.23;;;13.45;;
33104;SDS011;19476;51.448;6.674;2024-03-07T08:57:39;20.73;;;13.20;;
33104;SDS011;19476;51.448;6.674;2024-03-07T09:00:06;21.38;;;12.90;;
33104;SDS011;19476;51.448;6.674;2024-03-07T09:02:52;19.88;;;13.63;;
33104;SDS011;19476;51.448;6.674;2024-03-07T09:05:20;17.17;;;11.73;;
33104;SDS011;19476;51.448;6.674;2024-03-07T09:07:47;19.30;;;11.80;;
33104;SDS011;19476;51.448;6.674;2024-03-07T09:10:14;18.77;;;11.88;;
33104;SDS011;19476;51.448;6.674;2024-03-07T09:12:40;19.17;;;12.52;;
33104;SDS011;19476;51.448;6.674;2024-03-07T09:15:06;18.13;;;11.35;;
33104;SDS011;19476;51.448;6.674;2024-03-07T09:17:32;19.05;;;12.10;;
33104;SDS011;19476;51.448;6.674;2024-03-07T09:19:58;18.65;;;11.40;;
33104;SDS011;19476;51.448;6.674;2024-03-07T09:22:23;18.92;;;11.27;;
33104;SDS011;19476;51.448;6.674;2024-03-07T09:24:50;19.70;;;10.73;;
33104;SDS011;19476;51.448;6.674;2024-03-07T09:27:17;18.27;;;11.52;;
33104;SDS011;19476;51.448;6.674;2024-03-07T09:29:45;15.48;;;9.63;;
33104;SDS011;19476;51.448;6.674;2024-03-07T09:32:12;16.50;;;10.50;;
33104;SDS011;19476;51.448;6.674;2024-03-07T09:34:38;14.60;;;9.98;;
33104;SDS011;19476;51.448;6.674;2024-03-07T09:37:04;16.60;;;11.07;;
33104;SDS011;19476;51.448;6.674;2024-03-07T09:39:32;16.75;;;10.70;;
33104;SDS011;19476;51.448;6.674;2024-03-07T09:42:00;14.65;;;9.10;;
33104;SDS011;19476;51.448;6.674;2024-03-07T09:44:27;16.42;;;10.43;;
33104;SDS011;19476;51.448;6.674;2024-03-07T09:46:54;17.00;;;9.95;;
33104;SDS011;19476;51.448;6.674;2024-03-07T09:49:23;17.90;;;10.82;;
33104;SDS011;19476;51.448;6.674;2024-03-07T09:51:50;16.40;;;10.07;;
33104;SDS011;19476;51.448;6.674;2024-03-07T09:54:20;15.77;;;9.90;;
33104;SDS011;19476;51.448;6.674;2024-03-07T09:56:49;15.15;;;9.35;;
33104;SDS011;19476;51.448;6.674;2024-03-07T09:59:17;13.98;;;8.93;;
33104;SDS011;19476;51.448;6.674;2024-03-07T10:01:47;16.83;;;9.98;;
33104;SDS011;19476;51.448;6.674;2024-03-07T10:04:21;15.38;;;9.50;;
33104;SDS011;19476;51.448;6.674;2024-03-07T10:07:01;17.27;;;9.57;;
33104;SDS011;19476;51.448;6.674;2024-03-07T10:09:27;14.00;;;9.02;;
33104;SDS011;19476;51.448;6.674;2024-03-07T10:11:59;16.48;;;9.77;;
33104;SDS011;19476;51.448;6.674;2024-03-07T10:14:25;17.98;;;10.88;;
33104;SDS011;19476;51.448;6.674;2024-03-07T10:16:53;16.92;;;9.85;;
33104;SDS011;19476;51.448;6.674;2024-03-07T10:19:21;18.35;;;10.80;;
33104;SDS011;19476;51.448;6.674;2024-03-07T10:21:47;18.30;;;10.88;;
33104;SDS011;19476;51.448;6.674;2024-03-07T10:24:13;14.27;;;8.68;;
33104;SDS011;19476;51.448;6.674;2024-03-07T10:26:39;17.92;;;9.95;;
33104;SDS011;19476;51.448;6.674;2024-03-07T10:29:06;17.10;;;10.27;;
33104;SDS011;19476;51.448;6.674;2024-03-07T10:31:33;15.68;;;10.00;;
33104;SDS011;19476;51.448;6.674;2024-03-07T10:34:03;15.60;;;9.65;;
33104;SDS011;19476;51.448;6.674;2024-03-07T10:36:32;15.50;;;9.55;;
33104;SDS011;19476;51.448;6.674;2024-03-07T10:38:59;16.73;;;9.27;;
33104;SDS011;19476;51.448;6.674;2024-03-07T10:41:36;15.43;;;9.25;;
33104;SDS011;19476;51.448;6.674;2024-03-07T10:44:24;14.98;;;8.90;;
33104;SDS011;19476;51.448;6.674;2024-03-07T10:46:57;15.93;;;9.02;;
33104;SDS011;19476;51.448;6.674;2024-03-07T10:49:25;15.50;;;10.20;;
33104;SDS011;19476;51.448;6.674;2024-03-07T10:51:58;15.87;;;9.47;;
33104;SDS011;19476;51.448;6.674;2024-03-07T10:54:46;14.57;;;8.07;;
33104;SDS011;19476;51.448;6.674;2024-03-07T10:57:31;13.45;;;8.32;;
33104;SDS011;19476;51.448;6.674;2024-03-07T11:00:02;12.52;;;8.20;;
33104;SDS011;19476;51.448;6.674;2024-03-07T11:02:47;12.55;;;8.45;;
33104;SDS011;19476;51.448;6.674;2024-03-07T11:05:18;15.07;;;8.93;;
33104;SDS011;19476;51.448;6.674;2024-03-07T11:07:45;14.65;;;9.10;;
33104;SDS011;19476;51.448;6.674;2024-03-07T11:10:13;14.43;;;9.65;;
33104;SDS011;19476;51.448;6.674;2024-03-07T11:12:42;15.05;;;9.52;;
33104;SDS011;19476;51.448;6.674;2024-03-07T11:15:11;14.55;;;9.05;;
33104;SDS011;19476;51.448;6.674;2024-03-07T11:17:45;14.15;;;9.98;;
33104;SDS011;19476;51.448;6.674;2024-03-07T11:20:19;14.30;;;9.15;;
33104;SDS011;19476;51.448;6.674;2024-03-07T11:22:48;16.77;;;10.20;;
33104;SDS011;19476;51.448;6.674;2024-03-07T11:25:17;12.48;;;8.48;;
33104;SDS011;19476;51.448;6.674;2024-03-07T11:27:50;16.77;;;10.18;;
33104;SDS011;19476;51.448;6.674;2024-03-07T11:30:19;13.73;;;9.25;;
33104;SDS011;19476;51.448;6.674;2024-03-07T11:32:46;13.88;;;9.50;;
33104;SDS011;19476;51.448;6.674;2024-03-07T11:35:14;13.20;;;8.70;;
33104;SDS011;19476;51.448;6.674;2024-03-07T11:40:11;13.52;;;9.13;;
33104;SDS011;19476;51.448;6.674;2024-03-07T11:42:45;14.27;;;9.23;;
33104;SDS011;19476;51.448;6.674;2024-03-07T11:45:15;14.77;;;9.73;;
33104;SDS011;19476;51.448;6.674;2024-03-07T11:47:50;12.40;;;8.15;;
33104;SDS011;19476;51.448;6.674;2024-03-07T11:50:25;13.52;;;9.15;;
33104;SDS011;19476;51.448;6.674;2024-03-07T11:53:00;12.48;;;8.68;;
33104;SDS011;19476;51.448;6.674;2024-03-07T11:55:27;13.38;;;9.02;;
33104;SDS011;19476;51.448;6.674;2024-03-07T11:58:07;12.85;;;8.55;;
33104;SDS011;19476;51.448;6.674;2024-03-07T12:00:37;13.18;;;8.02;;
33104;SDS011;19476;51.448;6.674;2024-03-07T12:03:13;12.38;;;7.82;;
33104;SDS011;19476;51.448;6.674;2024-03-07T12:05:42;13.80;;;8.53;;
33104;SDS011;19476;51.448;6.674;2024-03-07T12:08:10;13.55;;;9.38;;
33104;SDS011;19476;51.448;6.674;2024-03-07T12:10:36;13.93;;;8.38;;
33104;SDS011;19476;51.448;6.674;2024-03-07T12:13:04;13.07;;;8.70;;
33104;SDS011;19476;51.448;6.674;2024-03-07T12:15:31;12.13;;;8.00;;
33104;SDS011;19476;51.448;6.674;2024-03-07T12:17:58;14.48;;;8.55;;
33104;SDS011;19476;51.448;6.674;2024-03-07T12:20:27;11.82;;;8.18;;
33104;SDS011;19476;51.448;6.674;2024-03-07T12:22:56;12.05;;;7.40;;
33104;SDS011;19476;51.448;6.674;2024-03-07T12:25:22;12.77;;;9.40;;
33104;SDS011;19476;51.448;6.674;2024-03-07T12:27:59;15.50;;;9.30;;
33104;SDS011;19476;51.448;6.674;2024-03-07T12:30:28;12.48;;;8.40;;
33104;SDS011;19476;51.448;6.674;2024-03-07T12:35:24;12.80;;;8.57;;
33104;SDS011;19476;51.448;6.674;2024-03-07T12:37:50;14.52;;;8.80;;
33104;SDS011;19476;51.448;6.674;2024-03-07T12:40:23;14.45;;;9.43;;
33104;SDS011;19476;51.448;6.674;2024-03-07T12:42:52;11.23;;;7.68;;
33104;SDS011;19476;51.448;6.674;2024-03-07T12:45:21;11.98;;;8.10;;
33104;SDS011;19476;51.448;6.674;2024-03-07T12:47:47;12.43;;;9.07;;
33104;SDS011;19476;51.448;6.674;2024-03-07T12:50:17;12.18;;;8.10;;
33104;SDS011;19476;51.448;6.674;2024-03-07T12:52:49;13.57;;;8.10;;
33104;SDS011;19476;51.448;6.674;2024-03-07T12:55:16;13.27;;;8.95;;
33104;SDS011;19476;51.448;6.674;2024-03-07T12:57:48;10.77;;;7.53;;
33104;SDS011;19476;51.448;6.674;2024-03-07T13:00:17;12.35;;;8.90;;
33104;SDS011;19476;51.448;6.674;2024-03-07T13:02:45;12.43;;;8.40;;
33104;SDS011;19476;51.448;6.674;2024-03-07T13:05:12;12.80;;;8.70;;
33104;SDS011;19476;51.448;6.674;2024-03-07T13:07:46;13.25;;;9.10;;
33104;SDS011;19476;51.448;6.674;2024-03-07T13:10:14;12.95;;;9.00;;
33104;SDS011;19476;51.448;6.674;2024-03-07T13:12:41;13.68;;;9.10;;
33104;SDS011;19476;51.448;6.674;2024-03-07T13:15:10;14.30;;;9.30;;
33104;SDS011;19476;51.448;6.674;2024-03-07T13:17:36;13.23;;;9.77;;
33104;SDS011;19476;51.448;6.674;2024-03-07T13:20:03;15.23;;;8.50;;
33104;SDS011;19476;51.448;6.674;2024-03-07T13:22:40;11.68;;;8.40;;
33104;SDS011;19476;51.448;6.674;2024-03-07T13:25:45;13.70;;;8.23;;
33104;SDS011;19476;51.448;6.674;2024-03-07T13:30:38;12.23;;;7.90;;
33104;SDS011;19476;51.448;6.674;2024-03-07T13:33:05;11.85;;;7.95;;
33104;SDS011;19476;51.448;6.674;2024-03-07T13:35:31;11.63;;;8.25;;
33104;SDS011;19476;51.448;6.674;2024-03-07T13:37:59;13.32;;;9.05;;
33104;SDS011;19476;51.448;6.674;2024-03-07T13:40:26;12.80;;;8.18;;
33104;SDS011;19476;51.448;6.674;2024-03-07T13:42:58;13.38;;;8.73;;
33104;SDS011;19476;51.448;6.674;2024-03-07T13:48:05;11.55;;;8.65;;
33104;SDS011;19476;51.448;6.674;2024-03-07T13:50:33;13.43;;;9.05;;
33104;SDS011;19476;51.448;6.674;2024-03-07T13:52:59;13.75;;;9.50;;
33104;SDS011;19476;51.448;6.674;2024-03-07T13:56:04;12.15;;;8.27;;
33104;SDS011;19476;51.448;6.674;2024-03-07T14:18:11;12.98;;;8.65;;
33104;SDS011;19476;51.448;6.674;2024-03-07T14:23:39;10.68;;;6.82;;
33104;SDS011;19476;51.448;6.674;2024-03-07T14:32:54;9.95;;;7.10;;
33104;SDS011;19476;51.448;6.674;2024-03-07T14:35:32;9.10;;;5.97;;
33104;SDS011;19476;51.448;6.674;2024-03-07T14:40:54;10.65;;;6.68;;
33104;SDS011;19476;51.448;6.674;2024-03-07T14:43:24;10.15;;;6.45;;
33104;SDS011;19476;51.448;6.674;2024-03-07T14:45:50;10.23;;;6.55;;
33104;SDS011;19476;51.448;6.674;2024-03-07T14:48:20;9.73;;;5.95;;
33104;SDS011;19476;51.448;6.674;2024-03-07T14:50:46;10.75;;;6.38;;
33104;SDS011;19476;51.448;6.674;2024-03-07T14:53:12;8.95;;;5.60;;
33104;SDS011;19476;51.448;6.674;2024-03-07T14:55:42;8.55;;;5.90;;
33104;SDS011;19476;51.448;6.674;2024-03-07T14:58:12;9.52;;;5.47;;
33104;SDS011;19476;51.448;6.674;2024-03-07T15:00:40;8.80;;;5.80;;
33104;SDS011;19476;51.448;6.674;2024-03-07T15:03:07;9.65;;;5.88;;
33104;SDS011;19476;51.448;6.674;2024-03-07T15:05:35;9.00;;;5.88;;
33104;SDS011;19476;51.448;6.674;2024-03-07T15:08:01;7.95;;;5.20;;
33104;SDS011;19476;51.448;6.674;2024-03-07T15:10:33;9.70;;;6.03;;
33104;SDS011;19476;51.448;6.674;2024-03-07T15:13:12;9.43;;;5.18;;